createdAt,value
2023-03-13T00:00:59.368Z,22.74
2023-03-13T00:03:29.413Z,22.74
2023-03-13T00:06:02.471Z,22.73
2023-03-13T00:08:32.783Z,22.73
2023-03-13T00:11:07.384Z,22.71
2023-03-13T00:13:37.319Z,22.73
2023-03-13T00:16:08.959Z,22.73
2023-03-13T00:18:38.931Z,22.72
2023-03-13T00:21:09.883Z,22.73
2023-03-13T00:23:40.017Z,22.71
2023-03-13T00:26:13.943Z,22.71
2023-03-13T00:28:45.866Z,22.70
2023-03-13T00:31:16.933Z,22.69
2023-03-13T00:33:48.014Z,22.68
2023-03-13T00:36:25.260Z,22.67
2023-03-13T00:38:56.728Z,22.67
2023-03-13T00:41:30.852Z,22.66
2023-03-13T00:44:03.763Z,22.65
2023-03-13T00:46:34.690Z,22.66
2023-03-13T00:49:05.385Z,22.61
2023-03-13T00:51:35.205Z,22.63
2023-03-13T00:54:05.628Z,22.63
2023-03-13T00:56:35.865Z,22.62
2023-03-13T00:59:06.069Z,22.60
2023-03-13T01:01:36.999Z,22.60
2023-03-13T01:04:08.571Z,22.59
2023-03-13T01:06:41.479Z,22.58
2023-03-13T01:09:13.411Z,22.57
2023-03-13T01:11:43.631Z,22.57
2023-03-13T01:14:15.527Z,22.55
2023-03-13T01:16:45.782Z,22.55
2023-03-13T01:19:16.821Z,22.54
2023-03-13T01:21:46.830Z,22.52
2023-03-13T01:24:17.554Z,22.52
2023-03-13T01:26:47.384Z,22.52
2023-03-13T01:29:17.650Z,22.52
2023-03-13T01:31:47.513Z,22.53
2023-03-13T01:34:17.346Z,22.53
2023-03-13T01:39:55.134Z,22.54
2023-03-13T01:42:25.067Z,22.54
2023-03-13T01:44:56.647Z,22.56
2023-03-13T01:47:26.511Z,22.55
2023-03-13T01:49:56.559Z,22.57
2023-03-13T01:52:29.728Z,22.58
2023-03-13T01:55:06.556Z,22.58
2023-03-13T01:57:55.096Z,22.60
2023-03-13T02:00:27.016Z,22.61
2023-03-13T02:02:58.440Z,22.63
2023-03-13T02:05:28.800Z,22.63
2023-03-13T02:08:01.900Z,22.64
2023-03-13T02:10:33.151Z,22.66
2023-03-13T02:13:04.594Z,22.67
2023-03-13T02:15:35.748Z,22.67
2023-03-13T02:18:06.038Z,22.66
2023-03-13T02:20:36.316Z,22.65
2023-03-13T02:23:09.764Z,22.65
2023-03-13T02:25:47.621Z,22.65
2023-03-13T02:28:22.838Z,22.66
2023-03-13T02:30:53.321Z,22.66
2023-03-13T02:33:23.512Z,22.66
2023-03-13T02:35:53.918Z,22.66
2023-03-13T02:38:28.609Z,22.65
2023-03-13T02:40:59.350Z,22.64
2023-03-13T02:43:36.678Z,22.63
2023-03-13T02:46:14.553Z,22.62
2023-03-13T02:48:50.264Z,22.61
2023-03-13T02:51:33.774Z,22.62
2023-03-13T02:54:06.977Z,22.62
2023-03-13T02:57:02.298Z,22.57
2023-03-13T02:59:32.934Z,22.59
2023-03-13T03:02:04.013Z,22.57
2023-03-13T03:04:34.305Z,22.57
2023-03-13T03:07:04.471Z,22.55
2023-03-13T03:09:35.543Z,22.56
2023-03-13T03:12:07.787Z,22.44
2023-03-13T03:14:37.737Z,22.55
2023-03-13T03:17:07.951Z,22.54
2023-03-13T03:19:37.879Z,22.53
2023-03-13T03:22:07.990Z,22.51
2023-03-13T03:24:37.948Z,22.49
2023-03-13T03:27:07.897Z,22.49
2023-03-13T03:29:37.931Z,22.45
2023-03-13T03:32:08.014Z,22.45
2023-03-13T03:34:38.218Z,22.45
2023-03-13T03:37:08.267Z,22.46
2023-03-13T03:39:38.219Z,22.44
2023-03-13T03:42:08.278Z,22.43
2023-03-13T03:44:38.272Z,22.44
2023-03-13T03:47:08.270Z,22.41
2023-03-13T03:49:38.206Z,22.40
2023-03-13T03:52:08.557Z,22.39
2023-03-13T03:54:41.500Z,22.39
2023-03-13T03:57:12.783Z,22.40
2023-03-13T03:59:42.621Z,22.41
2023-03-13T04:02:12.858Z,22.42
2023-03-13T04:04:43.055Z,22.40
2023-03-13T04:07:13.057Z,22.38
2023-03-13T04:09:43.244Z,22.39
2023-03-13T04:12:13.182Z,22.39
2023-03-13T04:14:43.030Z,22.37
2023-03-13T04:17:13.325Z,22.38
2023-03-13T04:19:43.356Z,22.38
2023-03-13T04:22:13.314Z,22.39
2023-03-13T04:24:43.249Z,22.38
2023-03-13T04:27:13.440Z,22.36
2023-03-13T04:29:43.303Z,22.36
2023-03-13T04:32:13.234Z,22.35
2023-03-13T04:34:43.604Z,22.33
2023-03-13T04:37:13.612Z,22.33
2023-03-13T04:40:04.102Z,22.32
2023-03-13T04:42:34.846Z,22.31
2023-03-13T04:45:05.999Z,22.30
2023-03-13T04:47:35.893Z,22.25
2023-03-13T04:50:06.269Z,22.26
2023-03-13T04:52:36.251Z,22.23
2023-03-13T04:55:06.440Z,22.23
2023-03-13T04:57:36.287Z,22.22
2023-03-13T05:00:08.897Z,22.20
2023-03-13T05:02:41.011Z,22.18
2023-03-13T05:05:11.468Z,22.17
2023-03-13T05:07:42.247Z,22.16
2023-03-13T05:10:12.997Z,22.12
2023-03-13T05:12:42.917Z,22.11
2023-03-13T05:15:13.231Z,22.09
2023-03-13T05:17:43.190Z,22.07
2023-03-13T05:20:13.759Z,22.06
2023-03-13T05:22:45.931Z,22.04
2023-03-13T05:25:15.702Z,22.02
2023-03-13T05:27:45.663Z,22.00
2023-03-13T05:30:15.937Z,21.97
2023-03-13T05:32:45.906Z,21.95
2023-03-13T05:35:15.885Z,21.95
2023-03-13T05:37:46.932Z,21.93
2023-03-13T05:40:17.254Z,21.89
2023-03-13T05:42:47.532Z,21.88
2023-03-13T05:45:17.613Z,21.84
2023-03-13T05:47:47.829Z,21.84
2023-03-13T05:50:18.050Z,21.83
2023-03-13T05:52:48.183Z,21.80
2023-03-13T05:55:18.380Z,21.78
2023-03-13T05:57:49.552Z,21.75
2023-03-13T06:00:21.032Z,21.74
2023-03-13T06:02:50.917Z,21.72
2023-03-13T06:05:20.816Z,21.71
2023-03-13T06:07:52.069Z,21.68
2023-03-13T06:10:22.068Z,21.67
2023-03-13T06:12:56.109Z,21.62
2023-03-13T06:15:26.348Z,21.61
2023-03-13T06:17:56.236Z,21.60
2023-03-13T06:20:26.428Z,21.57
2023-03-13T06:22:58.524Z,21.54
2023-03-13T06:25:28.481Z,21.52
2023-03-13T06:27:58.543Z,21.51
2023-03-13T06:30:28.618Z,21.47
2023-03-13T06:32:59.220Z,21.46
2023-03-13T06:35:29.328Z,21.43
2023-03-13T06:37:59.697Z,21.42
2023-03-13T06:40:29.857Z,21.40
2023-03-13T06:42:59.980Z,21.37
2023-03-13T06:45:30.018Z,21.34
2023-03-13T06:47:59.918Z,21.32
2023-03-13T06:50:29.961Z,21.32
2023-03-13T06:52:59.961Z,21.31
2023-03-13T06:55:29.779Z,21.28
2023-03-13T06:57:59.871Z,21.27
2023-03-13T07:00:30.152Z,21.24
2023-03-13T07:03:00.192Z,21.20
2023-03-13T07:05:30.020Z,21.19
2023-03-13T07:08:00.015Z,21.17
2023-03-13T07:10:30.058Z,21.14
2023-03-13T07:13:00.167Z,21.13
2023-03-13T07:15:30.071Z,21.08
2023-03-13T07:18:00.362Z,21.08
2023-03-13T07:20:33.333Z,21.06
2023-03-13T07:23:04.111Z,21.05
2023-03-13T07:25:34.976Z,21.03
2023-03-13T07:28:05.023Z,21.01
2023-03-13T07:30:36.222Z,20.97
2023-03-13T07:33:06.138Z,20.96
2023-03-13T07:35:36.235Z,20.95
2023-03-13T07:38:06.407Z,20.92
2023-03-13T07:40:36.242Z,20.92
2023-03-13T07:43:05.958Z,20.91
2023-03-13T07:45:36.215Z,20.87
2023-03-13T07:48:06.551Z,20.84
2023-03-13T07:50:36.604Z,20.82
2023-03-13T07:53:07.192Z,20.80
2023-03-13T07:55:37.224Z,20.79
2023-03-13T07:58:07.211Z,20.78
2023-03-13T08:00:37.230Z,20.74
2023-03-13T08:03:07.705Z,20.70
2023-03-13T08:05:37.713Z,20.73
2023-03-13T08:08:07.711Z,20.70
2023-03-13T08:10:37.791Z,20.69
2023-03-13T08:13:07.698Z,20.67
2023-03-13T08:15:39.886Z,20.63
2023-03-13T08:18:09.778Z,20.63
2023-03-13T08:20:39.713Z,20.61
2023-03-13T08:23:10.670Z,20.58
2023-03-13T08:25:40.592Z,20.57
2023-03-13T08:28:11.616Z,20.54
2023-03-13T08:30:41.633Z,20.52
2023-03-13T08:33:11.869Z,20.51
2023-03-13T08:35:44.240Z,20.48
2023-03-13T08:38:14.232Z,20.48
2023-03-13T08:40:44.113Z,20.45
2023-03-13T08:43:13.964Z,20.42
2023-03-13T08:45:43.940Z,20.39
2023-03-13T08:48:13.851Z,20.38
2023-03-13T08:50:43.689Z,20.37
2023-03-13T08:53:13.594Z,20.35
2023-03-13T08:55:43.459Z,20.34
2023-03-13T08:58:13.445Z,20.31
2023-03-13T09:00:43.263Z,20.28
2023-03-13T09:03:13.049Z,20.28
2023-03-13T09:05:55.321Z,20.27
2023-03-13T09:08:14.533Z,20.24
2023-03-13T09:10:44.437Z,20.22
2023-03-13T09:13:14.488Z,20.20
2023-03-13T09:15:44.539Z,20.18
2023-03-13T09:18:14.542Z,20.18
2023-03-13T09:20:48.020Z,20.14
2023-03-13T09:23:17.475Z,20.12
2023-03-13T09:25:47.394Z,20.11
2023-03-13T09:28:17.835Z,20.11
2023-03-13T09:30:47.854Z,20.10
2023-03-13T09:33:18.140Z,20.10
2023-03-13T09:35:49.445Z,20.10
2023-03-13T09:38:22.677Z,20.08
2023-03-13T09:41:05.259Z,20.11
2023-03-13T09:43:39.089Z,20.11
2023-03-13T09:46:08.480Z,20.13
2023-03-13T09:48:47.138Z,20.12
2023-03-13T09:51:22.285Z,20.15
2023-03-13T09:54:12.960Z,20.15
2023-03-13T09:56:47.334Z,20.16
2023-03-13T09:59:26.206Z,20.18
2023-03-13T10:01:56.502Z,20.19
2023-03-13T10:04:44.279Z,20.22
2023-03-13T10:07:14.260Z,20.24
2023-03-13T10:09:44.582Z,20.26
2023-03-13T10:12:19.761Z,20.27
2023-03-13T10:15:04.503Z,20.29
2023-03-13T10:17:40.256Z,20.32
2023-03-13T10:20:27.441Z,20.32
2023-03-13T10:23:02.780Z,20.34
2023-03-13T10:25:35.327Z,20.35
2023-03-13T10:28:05.894Z,20.33
2023-03-13T10:30:37.362Z,20.31
2023-03-13T10:33:15.972Z,20.31
2023-03-13T10:35:45.973Z,20.30
2023-03-13T10:38:25.592Z,20.29
2023-03-13T10:41:01.324Z,20.28
2023-03-13T10:43:31.501Z,20.27
2023-03-13T10:46:03.995Z,20.25
2023-03-13T10:48:37.316Z,20.22
2023-03-13T10:51:07.242Z,20.20
2023-03-13T10:53:38.544Z,20.19
2023-03-13T10:56:16.031Z,20.18
2023-03-13T10:58:53.151Z,20.19
2023-03-13T11:01:44.049Z,20.19
2023-03-13T11:04:35.541Z,20.20
2023-03-13T11:07:07.540Z,20.19
2023-03-13T11:09:37.504Z,20.20
2023-03-13T11:12:15.781Z,20.25
2023-03-13T11:14:46.758Z,20.27
2023-03-13T11:17:36.028Z,20.28
2023-03-13T11:20:38.857Z,20.30
2023-03-13T11:23:11.388Z,20.32
2023-03-13T11:25:49.930Z,20.34
2023-03-13T11:28:28.504Z,20.36
2023-03-13T11:31:22.233Z,20.37
2023-03-13T11:34:03.777Z,20.41
2023-03-13T11:36:36.797Z,20.43
2023-03-13T11:39:09.851Z,20.48
2023-03-13T11:41:51.260Z,20.51
2023-03-13T11:44:31.997Z,20.57
2023-03-13T11:47:05.345Z,20.65
2023-03-13T11:49:43.994Z,20.69
2023-03-13T11:52:40.914Z,20.69
2023-03-13T11:55:13.551Z,20.78
2023-03-13T11:58:05.707Z,20.84
2023-03-13T12:01:00.033Z,20.88
2023-03-13T12:03:45.344Z,20.95
2023-03-13T12:06:27.840Z,20.97
2023-03-13T12:08:56.011Z,21.01
2023-03-13T12:11:28.580Z,21.05
2023-03-13T12:14:06.666Z,21.07
2023-03-13T12:16:42.210Z,21.11
2023-03-13T12:19:17.210Z,21.14
2023-03-13T12:21:53.896Z,21.19
2023-03-13T12:24:44.438Z,21.20
2023-03-13T12:27:33.264Z,21.24
2023-03-13T12:30:08.941Z,21.28
2023-03-13T12:32:44.970Z,21.30
2023-03-13T12:35:32.995Z,21.34
2023-03-13T12:38:15.479Z,21.37
2023-03-13T12:40:56.763Z,21.41
2023-03-13T12:43:28.846Z,21.47
2023-03-13T12:46:04.671Z,21.52
2023-03-13T12:48:54.589Z,21.56
2023-03-13T12:51:36.114Z,21.59
2023-03-13T12:54:33.536Z,21.62
2023-03-13T12:57:25.471Z,21.66
2023-03-13T12:59:57.543Z,21.70
2023-03-13T13:02:29.240Z,21.75
2023-03-13T13:05:01.758Z,21.77
2023-03-13T13:07:35.414Z,21.82
2023-03-13T13:10:14.257Z,21.82
2023-03-13T13:12:45.041Z,21.85
2023-03-13T13:15:26.759Z,21.87
2023-03-13T13:18:08.087Z,21.88
2023-03-13T13:20:49.680Z,21.91
2023-03-13T13:23:47.535Z,21.95
2023-03-13T13:26:34.005Z,21.97
2023-03-13T13:29:16.335Z,21.99
2023-03-13T13:31:56.450Z,22.00
2023-03-13T13:34:35.442Z,22.00
2023-03-13T13:37:07.737Z,22.03
2023-03-13T13:39:39.751Z,22.05
2023-03-13T13:42:36.528Z,22.08
2023-03-13T13:45:17.885Z,22.09
2023-03-13T13:47:49.022Z,22.10
2023-03-13T13:50:29.259Z,22.12
2023-03-13T13:53:28.729Z,22.14
2023-03-13T13:56:03.493Z,22.17
2023-03-13T13:58:33.959Z,22.19
2023-03-13T14:01:07.660Z,22.21
2023-03-13T14:03:41.830Z,22.22
2023-03-13T14:06:19.999Z,22.24
2023-03-13T14:08:50.137Z,22.25
2023-03-13T14:11:29.168Z,22.26
2023-03-13T14:14:18.089Z,22.26
2023-03-13T14:16:53.655Z,22.28
2023-03-13T14:19:34.535Z,22.32
2023-03-13T14:22:09.911Z,22.33
2023-03-13T14:24:39.733Z,22.34
2023-03-13T14:27:19.608Z,22.36
2023-03-13T14:30:10.007Z,22.37
2023-03-13T14:32:40.202Z,22.38
2023-03-13T14:35:11.339Z,22.40
2023-03-13T14:37:49.407Z,22.42
2023-03-13T14:40:26.707Z,22.41
2023-03-13T14:42:58.996Z,22.41
2023-03-13T14:45:36.301Z,22.40
2023-03-13T14:48:25.301Z,22.40
2023-03-13T14:51:12.389Z,22.39
2023-03-13T14:53:28.156Z,22.41
2023-03-13T14:56:15.570Z,22.42
2023-03-13T14:58:46.308Z,22.42
2023-03-13T15:01:19.050Z,22.40
2023-03-13T15:03:49.203Z,22.39
2023-03-13T15:06:20.709Z,22.38
2023-03-13T15:09:14.462Z,22.37
2023-03-13T15:11:49.279Z,22.37
2023-03-13T15:14:39.179Z,22.36
2023-03-13T15:17:15.223Z,22.35
2023-03-13T15:19:45.318Z,22.34
2023-03-13T15:22:17.045Z,22.33
2023-03-13T15:25:03.351Z,22.30
2023-03-13T15:27:19.874Z,22.29
2023-03-13T15:29:50.098Z,22.30
2023-03-13T15:32:22.696Z,22.29
2023-03-13T15:34:52.873Z,22.27
2023-03-13T15:37:23.176Z,22.28
2023-03-13T15:39:53.397Z,22.26
2023-03-13T15:42:24.615Z,22.25
2023-03-13T15:44:54.983Z,22.25
2023-03-13T15:47:24.900Z,22.26
2023-03-13T15:49:54.992Z,22.27
2023-03-13T15:52:25.085Z,22.26
2023-03-13T15:54:54.910Z,22.25
2023-03-13T15:57:26.842Z,22.25
2023-03-13T15:59:56.877Z,22.24
2023-03-13T16:02:26.785Z,22.26
2023-03-13T16:04:56.828Z,22.27
2023-03-13T16:07:26.757Z,22.28
2023-03-13T16:09:56.601Z,22.28
2023-03-13T16:12:47.034Z,22.30
2023-03-13T16:15:17.159Z,22.29
2023-03-13T16:17:46.971Z,22.30
2023-03-13T16:20:21.579Z,22.30
2023-03-13T16:22:53.680Z,22.34
2023-03-13T16:25:25.428Z,22.34
2023-03-13T16:27:56.858Z,22.38
2023-03-13T16:30:31.359Z,22.38
2023-03-13T16:33:01.286Z,22.40
2023-03-13T16:35:31.374Z,22.41
2023-03-13T16:38:01.700Z,22.43
2023-03-13T16:40:37.128Z,22.43
2023-03-13T16:43:07.137Z,22.44
2023-03-13T16:45:37.128Z,22.45
2023-03-13T16:48:07.207Z,22.44
2023-03-13T16:50:42.554Z,22.43
2023-03-13T16:53:15.301Z,22.44
2023-03-13T16:55:45.200Z,22.43
2023-03-13T16:58:15.045Z,22.43
2023-03-13T17:00:59.292Z,22.42
2023-03-13T17:03:17.155Z,22.41
2023-03-13T17:05:47.003Z,22.41
2023-03-13T17:08:16.871Z,22.40
2023-03-13T17:13:17.655Z,22.39
2023-03-13T17:15:47.720Z,22.40
2023-03-13T17:18:18.110Z,22.41
2023-03-13T17:20:49.110Z,22.42
2023-03-13T17:23:18.953Z,22.36
2023-03-13T17:25:48.849Z,22.39
2023-03-13T17:28:18.927Z,22.38
2023-03-13T17:30:48.815Z,22.38
2023-03-13T17:33:18.816Z,22.39
2023-03-13T17:35:48.682Z,22.38
2023-03-13T17:38:18.622Z,22.40
2023-03-13T17:40:48.556Z,22.38
2023-03-13T17:43:20.723Z,22.37
2023-03-13T17:45:51.491Z,22.36
2023-03-13T17:48:21.838Z,22.35
2023-03-13T17:50:51.670Z,22.34
2023-03-13T17:53:21.495Z,22.34
2023-03-13T17:55:51.581Z,22.37
2023-03-13T17:58:24.303Z,22.35
2023-03-13T18:00:56.516Z,22.38
2023-03-13T18:03:26.628Z,22.37
2023-03-13T18:05:56.587Z,22.38
2023-03-13T18:08:28.928Z,22.37
2023-03-13T18:13:36.972Z,22.39
2023-03-13T18:16:09.796Z,22.40
2023-03-13T18:18:39.693Z,22.42
2023-03-13T18:21:09.848Z,22.43
2023-03-13T18:23:39.736Z,22.46
2023-03-13T18:26:21.325Z,22.48
2023-03-13T18:28:51.323Z,22.48
2023-03-13T18:31:21.193Z,22.50
2023-03-13T18:33:51.125Z,22.50
2023-03-13T18:36:21.326Z,22.50
2023-03-13T18:38:51.406Z,22.50
2023-03-13T18:41:21.479Z,22.49
2023-03-13T18:43:51.503Z,22.51
2023-03-13T18:46:30.001Z,22.51
2023-03-13T18:49:01.166Z,22.52
2023-03-13T18:51:31.552Z,22.51
2023-03-13T18:54:02.317Z,22.50
2023-03-13T18:56:33.473Z,22.50
2023-03-13T18:59:04.118Z,22.50
2023-03-13T19:01:34.716Z,22.49
2023-03-13T19:04:05.579Z,22.50
2023-03-13T19:06:37.267Z,22.49
2023-03-13T19:09:41.674Z,22.48
2023-03-13T19:11:50.026Z,22.48
2023-03-13T19:14:20.050Z,22.47
2023-03-13T19:16:52.414Z,22.45
2023-03-13T19:19:23.303Z,22.44
2023-03-13T19:21:53.750Z,22.45
2023-03-13T19:27:52.278Z,22.42
2023-03-13T19:30:23.236Z,22.44
2023-03-13T19:32:53.381Z,22.45
2023-03-13T19:35:23.729Z,22.45
2023-03-13T19:37:54.527Z,22.44
2023-03-13T19:40:29.536Z,22.44
2023-03-13T19:43:01.766Z,22.44
2023-03-13T19:45:32.392Z,22.44
2023-03-13T19:48:02.406Z,22.44
2023-03-13T19:50:32.539Z,22.47
2023-03-13T19:53:05.745Z,22.48
2023-03-13T19:55:35.672Z,22.49
2023-03-13T19:58:13.626Z,22.51
2023-03-13T20:01:16.403Z,22.54
2023-03-13T20:03:43.962Z,22.54
2023-03-13T20:11:39.835Z,22.58
2023-03-13T20:17:28.415Z,22.59
2023-03-13T20:22:49.954Z,22.58
2023-03-13T20:28:27.457Z,22.58
2023-03-13T20:33:44.256Z,22.65
2023-03-13T20:36:15.140Z,22.60
2023-03-13T20:38:45.300Z,22.60
2023-03-13T20:41:15.342Z,22.60
2023-03-13T20:43:45.267Z,22.59
2023-03-13T20:46:15.138Z,22.59
2023-03-13T20:48:45.188Z,22.60
2023-03-13T20:51:15.071Z,22.59
2023-03-13T20:53:48.330Z,22.59
2023-03-13T20:56:19.559Z,22.58
2023-03-13T20:58:49.974Z,22.57
2023-03-13T21:01:22.431Z,22.59
2023-03-13T21:03:53.279Z,22.57
2023-03-13T21:06:23.233Z,22.54
2023-03-13T21:08:54.134Z,22.57
2023-03-13T21:11:24.749Z,22.56
2023-03-13T21:13:54.870Z,22.56
2023-03-13T21:16:24.921Z,22.56
2023-03-13T21:18:55.073Z,22.55
2023-03-13T21:21:25.019Z,22.55
2023-03-13T21:23:54.868Z,22.54
2023-03-13T21:26:24.929Z,22.55
2023-03-13T21:28:54.782Z,22.52
2023-03-13T21:31:24.532Z,22.51
2023-03-13T21:33:54.528Z,22.54
2023-03-13T21:36:25.375Z,22.53
2023-03-13T21:38:55.318Z,22.52
2023-03-13T21:41:25.439Z,22.52
2023-03-13T21:43:56.723Z,22.51
2023-03-13T21:46:26.742Z,22.50
2023-03-13T21:48:56.736Z,22.50
2023-03-13T21:51:26.746Z,22.50
2023-03-13T21:53:56.593Z,22.49
2023-03-13T21:56:26.428Z,22.49
2023-03-13T21:58:56.907Z,22.48
2023-03-13T22:01:26.716Z,22.47
2023-03-13T22:03:56.546Z,22.47
2023-03-13T22:06:27.948Z,22.46
2023-03-13T22:08:58.247Z,22.46
2023-03-13T22:11:28.117Z,22.42
2023-03-13T22:14:18.639Z,22.45
2023-03-13T22:16:50.634Z,22.45
2023-03-13T22:19:21.535Z,22.45
2023-03-13T22:21:52.530Z,22.45
2023-03-13T22:24:23.513Z,22.45
2023-03-13T22:26:53.350Z,22.43
2023-03-13T22:29:26.063Z,22.45
2023-03-13T22:31:56.228Z,22.46
2023-03-13T22:34:27.588Z,22.47
2023-03-13T22:36:57.558Z,22.48
2023-03-13T22:39:27.716Z,22.49
2023-03-13T22:42:00.524Z,22.50
2023-03-13T22:44:55.588Z,22.52
2023-03-13T22:47:27.453Z,22.54
2023-03-13T22:50:17.914Z,22.56
2023-03-13T22:52:48.219Z,22.57
2023-03-13T22:55:19.211Z,22.59
2023-03-13T22:57:54.859Z,22.57
2023-03-13T23:00:25.130Z,22.59
2023-03-13T23:02:56.504Z,22.60
2023-03-13T23:05:49.200Z,22.59
2023-03-13T23:08:19.650Z,22.59
2023-03-13T23:10:50.389Z,22.59
2023-03-13T23:13:21.527Z,22.61
2023-03-13T23:15:56.335Z,22.61
2023-03-13T23:18:26.380Z,22.61
2023-03-13T23:20:56.290Z,22.61
2023-03-13T23:23:26.368Z,22.60
2023-03-13T23:25:56.297Z,22.60
2023-03-13T23:28:26.291Z,22.60
2023-03-13T23:30:56.289Z,22.58
2023-03-13T23:33:26.263Z,22.58
2023-03-13T23:35:57.547Z,22.56
2023-03-13T23:38:27.475Z,22.56
2023-03-13T23:40:57.374Z,22.56
2023-03-13T23:43:27.441Z,22.55
2023-03-13T23:45:57.470Z,22.54
2023-03-13T23:48:27.471Z,22.53
2023-03-13T23:50:57.300Z,22.52
2023-03-13T23:53:27.430Z,22.52
2023-03-13T23:56:00.567Z,22.51
2023-03-13T23:58:30.483Z,22.50
